createdAt,value
2017-12-15T00:02:08.737Z,6.22
2017-12-15T00:04:36.293Z,6.30
2017-12-15T00:07:03.800Z,6.09
2017-12-15T00:09:31.514Z,6.31
2017-12-15T00:11:59.020Z,6.34
2017-12-15T00:14:26.622Z,6.28
2017-12-15T00:16:54.723Z,6.12
2017-12-15T00:19:22.261Z,6.17
2017-12-15T00:21:50.658Z,6.09
2017-12-15T00:24:18.201Z,6.05
2017-12-15T00:26:45.758Z,6.04
2017-12-15T00:29:13.265Z,6.23
2017-12-15T00:31:40.817Z,6.36
2017-12-15T00:34:08.325Z,6.03
2017-12-15T00:36:35.829Z,6.37
2017-12-15T00:39:03.398Z,6.25
2017-12-15T00:41:30.947Z,6.10
2017-12-15T00:43:58.474Z,6.16
2017-12-15T00:46:26.232Z,6.27
2017-12-15T00:48:53.738Z,6.24
2017-12-15T00:51:21.249Z,6.12
2017-12-15T00:53:49.331Z,6.16
2017-12-15T00:56:16.925Z,6.26
2017-12-15T00:58:44.426Z,6.45
2017-12-15T01:01:12.056Z,6.10
2017-12-15T01:03:39.561Z,6.23
2017-12-15T01:06:07.071Z,6.27
2017-12-15T01:08:34.880Z,6.26
2017-12-15T01:11:02.438Z,6.22
2017-12-15T01:13:29.947Z,6.30
2017-12-15T01:15:57.633Z,5.87
2017-12-15T01:18:25.138Z,6.21
2017-12-15T01:20:52.673Z,6.18
2017-12-15T01:23:20.232Z,6.02
2017-12-15T01:25:47.743Z,5.80
2017-12-15T01:28:15.250Z,5.72
2017-12-15T01:30:43.114Z,5.74
2017-12-15T01:33:10.623Z,5.37
2017-12-15T01:35:38.131Z,5.39
2017-12-15T01:38:05.894Z,5.65
2017-12-15T01:40:33.403Z,5.51
2017-12-15T01:43:00.994Z,5.44
2017-12-15T01:45:28.723Z,5.37
2017-12-15T01:47:56.226Z,5.37
2017-12-15T01:50:23.731Z,5.57
2017-12-15T01:52:51.358Z,5.35
2017-12-15T01:55:18.911Z,5.70
2017-12-15T01:57:46.410Z,5.59
2017-12-15T02:00:14.130Z,5.80
2017-12-15T02:02:41.635Z,6.20
2017-12-15T02:05:09.143Z,6.16
2017-12-15T02:07:36.718Z,6.48
2017-12-15T02:10:04.268Z,6.12
2017-12-15T02:12:31.824Z,5.82
2017-12-15T02:14:59.589Z,5.55
2017-12-15T02:17:27.094Z,5.41
2017-12-15T02:19:54.604Z,5.33
2017-12-15T02:22:22.178Z,5.36
2017-12-15T02:24:49.723Z,5.11
2017-12-15T02:27:17.231Z,5.40
2017-12-15T02:29:44.770Z,5.47
2017-12-15T02:32:12.297Z,5.04
2017-12-15T02:34:39.860Z,5.13
2017-12-15T02:37:07.517Z,5.12
2017-12-15T02:39:35.077Z,5.09
2017-12-15T02:42:02.587Z,5.08
2017-12-15T02:44:30.135Z,5.00
2017-12-15T02:46:57.652Z,4.95
2017-12-15T02:49:25.162Z,5.10
2017-12-15T02:51:52.975Z,5.14
2017-12-15T02:54:20.486Z,5.17
2017-12-15T02:56:48.005Z,5.31
2017-12-15T02:59:15.578Z,5.36
2017-12-15T03:01:43.155Z,5.34
2017-12-15T03:04:10.667Z,5.45
2017-12-15T03:06:38.246Z,5.54
2017-12-15T03:09:05.788Z,5.67
2017-12-15T03:11:33.346Z,5.66
2017-12-15T03:14:01.210Z,5.38
2017-12-15T03:16:29.180Z,5.21
2017-12-15T03:18:56.683Z,4.95
2017-12-15T03:21:24.235Z,4.65
2017-12-15T03:23:51.754Z,4.50
2017-12-15T03:26:19.258Z,4.37
2017-12-15T03:28:46.975Z,4.50
2017-12-15T03:31:14.479Z,4.69
2017-12-15T03:33:42.095Z,4.66
2017-12-15T03:36:09.662Z,4.56
2017-12-15T03:38:37.166Z,4.52
2017-12-15T03:41:04.680Z,4.72
2017-12-15T03:43:32.431Z,4.78
2017-12-15T03:45:59.935Z,4.59
2017-12-15T03:48:27.449Z,4.81
2017-12-15T03:50:55.085Z,4.72
2017-12-15T03:53:22.589Z,4.89
2017-12-15T03:55:50.126Z,5.05
2017-12-15T03:58:18.030Z,4.95
2017-12-15T04:00:45.532Z,5.17
2017-12-15T04:03:13.041Z,4.92
2017-12-15T04:05:40.590Z,4.72
2017-12-15T04:08:08.098Z,4.60
2017-12-15T04:10:35.992Z,4.72
2017-12-15T04:13:03.759Z,4.60
2017-12-15T04:15:31.314Z,4.72
2017-12-15T04:17:58.874Z,4.80
2017-12-15T04:20:26.613Z,4.92
2017-12-15T04:22:54.130Z,4.86
2017-12-15T04:25:21.634Z,4.79
2017-12-15T04:27:49.189Z,4.90
2017-12-15T04:30:16.713Z,4.89
2017-12-15T04:32:44.219Z,4.95
2017-12-15T04:35:11.991Z,4.84
2017-12-15T04:37:39.551Z,4.74
2017-12-15T04:40:07.109Z,4.67
2017-12-15T04:42:34.823Z,4.64
2017-12-15T04:45:02.945Z,4.47
2017-12-15T04:47:30.447Z,4.57
2017-12-15T04:49:58.471Z,4.50
2017-12-15T04:52:25.982Z,4.67
2017-12-15T04:54:53.487Z,4.71
2017-12-15T04:57:21.150Z,4.55
2017-12-15T04:59:48.709Z,4.72
2017-12-15T05:02:16.269Z,4.75
2017-12-15T05:04:43.827Z,4.73
2017-12-15T05:07:11.333Z,4.73
2017-12-15T05:09:38.842Z,4.76
2017-12-15T05:12:06.449Z,4.72
2017-12-15T05:14:33.961Z,4.73
2017-12-15T05:17:01.462Z,4.89
2017-12-15T05:19:29.154Z,4.87
2017-12-15T05:21:56.653Z,4.76
2017-12-15T05:24:24.964Z,4.54
2017-12-15T05:26:52.984Z,4.66
2017-12-15T05:29:20.540Z,4.97
2017-12-15T05:31:48.042Z,4.76
2017-12-15T05:34:15.753Z,4.99
2017-12-15T05:36:43.259Z,5.12
2017-12-15T05:39:10.766Z,5.12
2017-12-15T05:41:38.548Z,5.27
2017-12-15T05:44:06.046Z,5.42
2017-12-15T05:46:33.560Z,5.49
2017-12-15T05:49:01.542Z,5.50
2017-12-15T05:51:29.088Z,5.51
2017-12-15T05:53:56.590Z,5.55
2017-12-15T05:56:24.223Z,5.46
2017-12-15T05:58:51.765Z,5.39
2017-12-15T06:01:19.265Z,5.28
2017-12-15T06:03:46.985Z,5.29
2017-12-15T06:06:14.490Z,5.26
2017-12-15T06:08:42.081Z,5.53
2017-12-15T06:11:09.841Z,5.45
2017-12-15T06:13:37.346Z,5.39
2017-12-15T06:16:04.902Z,5.33
2017-12-15T06:18:32.739Z,5.22
2017-12-15T06:21:00.243Z,5.20
2017-12-15T06:23:27.750Z,5.16
2017-12-15T06:25:55.326Z,5.06
2017-12-15T06:28:22.834Z,5.07
2017-12-15T06:30:50.374Z,4.97
2017-12-15T06:33:18.309Z,5.20
2017-12-15T06:35:45.869Z,4.95
2017-12-15T06:38:13.455Z,5.38
2017-12-15T06:40:41.211Z,5.28
2017-12-15T06:43:08.718Z,4.87
2017-12-15T06:45:36.719Z,5.11
2017-12-15T06:48:04.254Z,5.43
2017-12-15T06:50:31.757Z,5.21
2017-12-15T06:52:59.258Z,5.14
2017-12-15T06:55:27.015Z,5.17
2017-12-15T06:57:54.494Z,5.13
2017-12-15T07:00:21.999Z,5.28
2017-12-15T07:02:49.736Z,5.26
2017-12-15T07:05:17.250Z,5.49
2017-12-15T07:07:44.761Z,5.52
2017-12-15T07:10:12.311Z,5.09
2017-12-15T07:12:40.791Z,5.45
2017-12-15T07:15:09.273Z,5.56
2017-12-15T07:17:37.035Z,5.42
2017-12-15T07:20:04.533Z,5.29
2017-12-15T07:22:32.051Z,5.44
2017-12-15T07:24:59.789Z,5.45
2017-12-15T07:27:27.295Z,5.46
2017-12-15T07:29:54.812Z,5.51
2017-12-15T07:32:22.355Z,5.51
2017-12-15T07:34:49.872Z,5.54
2017-12-15T07:37:17.377Z,5.35
2017-12-15T07:39:45.272Z,5.36
2017-12-15T07:42:12.822Z,5.51
2017-12-15T07:44:40.362Z,5.54
2017-12-15T07:47:07.953Z,5.28
2017-12-15T07:49:35.514Z,5.52
2017-12-15T07:52:03.018Z,5.66
2017-12-15T07:54:30.627Z,5.49
2017-12-15T07:56:58.184Z,5.63
2017-12-15T07:59:25.745Z,5.60
2017-12-15T08:01:53.516Z,5.30
2017-12-15T08:04:21.022Z,5.70
2017-12-15T08:06:48.530Z,5.58
2017-12-15T08:09:16.597Z,5.66
2017-12-15T08:11:44.361Z,5.56
2017-12-15T08:14:11.917Z,5.78
2017-12-15T08:16:40.091Z,5.99
2017-12-15T08:19:07.878Z,5.86
2017-12-15T08:21:35.515Z,5.72
2017-12-15T08:24:03.506Z,5.74
2017-12-15T08:26:31.146Z,5.90
2017-12-15T08:28:58.798Z,5.74
2017-12-15T08:31:26.940Z,5.48
2017-12-15T08:33:54.494Z,5.68
2017-12-15T08:36:22.001Z,5.73
2017-12-15T08:38:50.339Z,5.96
2017-12-15T08:41:18.753Z,5.63
2017-12-15T08:43:46.304Z,5.41
2017-12-15T08:48:47.269Z,5.77
2017-12-15T08:51:14.886Z,5.90
2017-12-15T08:53:42.418Z,5.90
2017-12-15T08:56:10.815Z,5.75
2017-12-15T08:58:41.090Z,5.52
2017-12-15T09:01:08.595Z,5.52
2017-12-15T09:03:36.186Z,5.72
2017-12-15T09:06:03.976Z,5.80
2017-12-15T09:08:33.277Z,6.11
2017-12-15T09:11:02.386Z,5.97
2017-12-15T09:13:30.027Z,6.00
2017-12-15T09:15:58.302Z,6.35
2017-12-15T09:18:25.813Z,6.26
2017-12-15T09:20:53.364Z,5.91
2017-12-15T09:23:21.904Z,6.31
2017-12-15T09:25:51.355Z,6.18
2017-12-15T09:28:20.120Z,6.84
2017-12-15T09:30:48.442Z,7.14
2017-12-15T09:33:17.793Z,7.09
2017-12-15T09:35:47.197Z,7.38
2017-12-15T09:38:16.039Z,7.88
2017-12-15T09:40:43.725Z,9.24
2017-12-15T09:43:11.506Z,10.16
2017-12-15T09:45:39.877Z,10.12
2017-12-15T09:48:07.504Z,10.64
2017-12-15T09:50:35.105Z,8.91
2017-12-15T09:53:02.635Z,8.81
2017-12-15T09:55:30.142Z,8.50
2017-12-15T09:57:58.073Z,8.20
2017-12-15T10:00:25.586Z,8.07
2017-12-15T10:02:53.102Z,7.77
2017-12-15T10:05:20.853Z,8.10
2017-12-15T10:07:48.359Z,8.41
2017-12-15T10:10:15.870Z,9.53
2017-12-15T10:12:43.827Z,9.04
2017-12-15T10:15:11.335Z,8.09
2017-12-15T10:17:38.856Z,7.84
2017-12-15T10:20:06.620Z,7.54
2017-12-15T10:22:34.122Z,7.65
2017-12-15T10:25:01.633Z,7.41
2017-12-15T10:27:29.179Z,8.16
2017-12-15T10:29:56.681Z,8.55
2017-12-15T10:32:24.209Z,9.30
2017-12-15T10:34:51.846Z,9.30
2017-12-15T10:37:19.350Z,9.42
2017-12-15T10:39:46.884Z,8.98
2017-12-15T10:42:14.670Z,8.37
2017-12-15T10:44:42.208Z,9.25
2017-12-15T10:47:09.767Z,10.75
2017-12-15T10:49:37.506Z,11.73
2017-12-15T10:52:05.028Z,11.19
2017-12-15T10:54:32.534Z,11.56
2017-12-15T10:57:00.091Z,10.59
2017-12-15T10:59:27.604Z,9.27
2017-12-15T11:01:55.160Z,9.25
2017-12-15T11:04:22.732Z,9.67
2017-12-15T11:06:50.242Z,9.27
2017-12-15T11:09:17.747Z,9.36
2017-12-15T11:11:45.300Z,9.62
2017-12-15T11:14:12.917Z,9.18
2017-12-15T11:16:40.592Z,8.80
2017-12-15T11:19:08.137Z,8.83
2017-12-15T11:21:35.642Z,8.83
2017-12-15T11:24:03.152Z,8.67
2017-12-15T11:26:30.839Z,9.83
2017-12-15T11:28:58.347Z,11.26
2017-12-15T11:31:25.866Z,10.41
2017-12-15T11:33:53.439Z,10.57
2017-12-15T11:36:20.951Z,9.87
2017-12-15T11:38:48.523Z,9.23
2017-12-15T11:41:16.271Z,9.90
2017-12-15T11:43:43.774Z,9.46
2017-12-15T11:46:11.390Z,10.36
2017-12-15T11:48:39.153Z,9.45
2017-12-15T11:51:06.722Z,9.66
2017-12-15T11:53:34.272Z,9.58
2017-12-15T11:56:02.017Z,8.79
2017-12-15T11:58:29.526Z,9.02
2017-12-15T12:00:57.051Z,8.49
2017-12-15T12:03:24.917Z,8.28
2017-12-15T12:05:52.477Z,8.07
2017-12-15T12:08:19.983Z,8.44
2017-12-15T12:10:47.696Z,8.40
2017-12-15T12:13:15.201Z,7.93
2017-12-15T12:15:42.711Z,7.84
2017-12-15T12:18:10.258Z,7.99
2017-12-15T12:20:37.784Z,7.72
2017-12-15T12:23:05.302Z,7.70
2017-12-15T12:25:33.051Z,7.89
2017-12-15T12:28:00.563Z,7.33
2017-12-15T12:30:28.097Z,6.93
2017-12-15T12:32:55.654Z,6.97
2017-12-15T12:35:23.178Z,6.90
2017-12-15T12:37:50.687Z,6.81
2017-12-15T12:40:18.239Z,6.66
2017-12-15T12:42:45.742Z,6.87
2017-12-15T12:45:13.599Z,7.18
2017-12-15T12:47:41.193Z,7.56
2017-12-15T12:50:08.847Z,7.34
2017-12-15T12:52:36.409Z,7.18
2017-12-15T12:55:03.958Z,7.12
2017-12-15T12:57:31.465Z,7.35
2017-12-15T12:59:59.378Z,8.03
2017-12-15T13:02:27.978Z,7.86
2017-12-15T13:04:55.531Z,8.15
2017-12-15T13:07:23.043Z,8.06
2017-12-15T13:09:50.789Z,8.39
2017-12-15T13:12:18.310Z,8.49
2017-12-15T13:14:45.884Z,8.45
2017-12-15T13:17:13.473Z,8.63
2017-12-15T13:19:41.401Z,8.72
2017-12-15T13:22:08.958Z,8.71
2017-12-15T13:24:36.899Z,8.82
2017-12-15T13:27:05.101Z,8.62
2017-12-15T13:29:32.764Z,8.37
2017-12-15T13:32:00.517Z,8.04
2017-12-15T13:34:28.064Z,7.70
2017-12-15T13:36:55.849Z,7.49
2017-12-15T13:39:24.125Z,7.32
2017-12-15T13:41:51.684Z,7.18
2017-12-15T13:44:19.245Z,7.17
2017-12-15T13:46:47.211Z,6.92
2017-12-15T13:49:14.827Z,6.86
2017-12-15T13:51:42.364Z,6.84
2017-12-15T13:54:10.079Z,6.62
2017-12-15T13:56:37.948Z,6.52
2017-12-15T13:59:05.623Z,6.55
2017-12-15T14:01:33.169Z,6.56
2017-12-15T14:04:00.842Z,6.49
2017-12-15T14:06:28.484Z,6.49
2017-12-15T14:08:56.242Z,6.86
2017-12-15T14:11:23.975Z,6.80
2017-12-15T14:13:51.591Z,6.57
2017-12-15T14:16:20.072Z,6.51
2017-12-15T14:18:47.606Z,6.40
2017-12-15T14:21:15.117Z,6.41
2017-12-15T14:23:42.954Z,6.16
2017-12-15T14:26:10.479Z,6.17
2017-12-15T14:28:38.293Z,6.20
2017-12-15T14:31:06.138Z,5.86
2017-12-15T14:33:33.651Z,5.90
2017-12-15T14:36:01.158Z,6.01
2017-12-15T14:38:28.938Z,5.66
2017-12-15T14:40:57.198Z,5.35
2017-12-15T14:43:24.759Z,5.59
2017-12-15T14:45:52.726Z,5.82
2017-12-15T14:48:20.302Z,5.81
2017-12-15T14:50:47.844Z,5.76
2017-12-15T14:53:15.582Z,5.85
2017-12-15T14:55:43.098Z,6.07
2017-12-15T14:58:10.623Z,5.89
2017-12-15T15:00:38.228Z,5.79
2017-12-15T15:03:05.787Z,5.88
2017-12-15T15:05:33.402Z,5.91
2017-12-15T15:08:01.034Z,6.12
2017-12-15T15:10:28.594Z,6.16
2017-12-15T15:12:56.389Z,5.91
2017-12-15T15:15:24.156Z,6.05
2017-12-15T15:17:51.925Z,5.63
2017-12-15T15:20:19.782Z,5.80
2017-12-15T15:22:47.521Z,5.99
2017-12-15T15:25:15.206Z,6.05
2017-12-15T15:27:42.773Z,5.91
2017-12-15T15:30:10.339Z,6.02
2017-12-15T15:32:38.294Z,5.97
2017-12-15T15:35:05.944Z,5.96
2017-12-15T15:37:34.162Z,5.96
2017-12-15T15:40:01.756Z,5.89
2017-12-15T15:42:29.282Z,5.74
2017-12-15T15:44:57.321Z,5.71
2017-12-15T15:47:24.847Z,5.66
2017-12-15T15:49:52.354Z,5.57
2017-12-15T15:52:19.995Z,5.41
2017-12-15T15:54:47.553Z,5.39
2017-12-15T15:57:15.065Z,5.47
2017-12-15T15:59:42.797Z,5.59
2017-12-15T16:02:10.744Z,5.59
2017-12-15T16:04:38.273Z,5.73
2017-12-15T16:07:05.861Z,5.57
2017-12-15T16:09:33.450Z,5.65
2017-12-15T16:12:00.979Z,5.40
2017-12-15T16:14:28.747Z,5.46
2017-12-15T16:16:56.260Z,5.54
2017-12-15T16:19:24.169Z,5.39
2017-12-15T16:21:51.928Z,5.69
2017-12-15T16:24:19.493Z,5.87
2017-12-15T16:26:47.312Z,5.75
2017-12-15T16:29:15.224Z,5.67
2017-12-15T16:31:42.763Z,5.75
2017-12-15T16:34:10.343Z,5.71
2017-12-15T16:36:38.107Z,5.52
2017-12-15T16:39:05.886Z,5.59
2017-12-15T16:41:33.642Z,5.64
2017-12-15T16:44:01.500Z,5.43
2017-12-15T16:46:29.061Z,5.52
2017-12-15T16:48:56.598Z,5.53
2017-12-15T16:51:24.689Z,5.56
2017-12-15T16:53:52.254Z,5.49
2017-12-15T16:56:20.012Z,5.60
2017-12-15T16:58:47.675Z,5.54
2017-12-15T17:01:15.219Z,5.57
2017-12-15T17:03:42.727Z,5.58
2017-12-15T17:06:10.556Z,5.60
2017-12-15T17:08:38.115Z,5.69
2017-12-15T17:11:05.630Z,5.70
2017-12-15T17:13:33.542Z,5.74
2017-12-15T17:16:01.050Z,5.64
2017-12-15T17:18:28.565Z,5.66
2017-12-15T17:20:56.427Z,5.76
2017-12-15T17:23:24.012Z,5.86
2017-12-15T17:25:51.543Z,5.86
2017-12-15T17:28:19.299Z,5.70
2017-12-15T17:30:46.883Z,5.58
2017-12-15T17:33:14.578Z,5.40
2017-12-15T17:35:42.177Z,5.34
2017-12-15T17:38:09.671Z,5.38
2017-12-15T17:40:37.188Z,5.20
2017-12-15T17:43:04.995Z,5.33
2017-12-15T17:45:32.577Z,5.48
2017-12-15T17:48:00.127Z,5.33
2017-12-15T17:50:27.949Z,5.22
2017-12-15T17:52:55.512Z,4.77
2017-12-15T17:55:23.010Z,4.57
2017-12-15T17:57:51.446Z,4.66
2017-12-15T18:00:19.006Z,4.44
2017-12-15T18:02:46.568Z,4.59
2017-12-15T18:05:14.235Z,4.69
2017-12-15T18:07:41.733Z,4.50
2017-12-15T18:10:09.344Z,4.60
2017-12-15T18:12:37.006Z,4.74
2017-12-15T18:15:04.564Z,4.66
2017-12-15T18:17:32.124Z,4.64
2017-12-15T18:19:59.955Z,4.64
2017-12-15T18:22:27.462Z,4.45
2017-12-15T18:24:54.994Z,4.38
2017-12-15T18:27:22.875Z,4.35
2017-12-15T18:29:50.392Z,4.40
2017-12-15T18:32:18.084Z,4.09
2017-12-15T18:34:46.368Z,4.19
2017-12-15T18:37:14.031Z,4.45
2017-12-15T18:39:41.608Z,4.15
2017-12-15T18:42:09.459Z,4.26
2017-12-15T18:44:38.018Z,4.20
2017-12-15T18:47:05.802Z,4.30
2017-12-15T18:49:33.593Z,4.22
2017-12-15T18:52:01.331Z,4.45
2017-12-15T18:54:28.992Z,4.44
2017-12-15T18:56:56.676Z,4.38
2017-12-15T18:59:24.212Z,4.41
2017-12-15T19:01:51.977Z,4.57
2017-12-15T19:04:19.876Z,4.57
2017-12-15T19:06:47.611Z,4.68
2017-12-15T19:09:15.267Z,4.66
2017-12-15T19:11:42.827Z,4.50
2017-12-15T19:14:10.513Z,4.35
2017-12-15T19:16:38.663Z,4.50
2017-12-15T19:19:06.848Z,4.49
2017-12-15T19:21:35.439Z,4.51
2017-12-15T19:24:03.490Z,4.59
2017-12-15T19:26:31.799Z,4.58
2017-12-15T19:28:59.530Z,4.50
2017-12-15T19:31:27.196Z,4.44
2017-12-15T19:33:55.002Z,4.46
2017-12-15T19:36:22.718Z,4.45
2017-12-15T19:38:54.192Z,4.24
2017-12-15T19:41:22.035Z,4.35
2017-12-15T19:43:50.416Z,4.47
2017-12-15T19:46:19.118Z,4.32
2017-12-15T19:48:46.847Z,4.34
2017-12-15T19:51:14.733Z,4.23
2017-12-15T19:53:42.610Z,4.41
2017-12-15T19:56:10.422Z,4.37
2017-12-15T19:58:38.230Z,4.46
2017-12-15T20:01:06.091Z,4.25
2017-12-15T20:03:33.857Z,4.25
2017-12-15T20:06:02.463Z,4.31
2017-12-15T20:08:30.479Z,4.11
2017-12-15T20:10:58.280Z,4.27
2017-12-15T20:13:26.044Z,4.11
2017-12-15T20:15:54.007Z,4.37
2017-12-15T20:18:21.874Z,4.21
2017-12-15T20:20:49.687Z,4.38
2017-12-15T20:23:17.918Z,4.56
2017-12-15T20:25:46.291Z,4.26
2017-12-15T20:28:14.056Z,4.20
2017-12-15T20:30:42.144Z,4.14
2017-12-15T20:33:09.993Z,3.90
2017-12-15T20:35:37.869Z,3.78
2017-12-15T20:38:05.889Z,3.59
2017-12-15T20:40:33.796Z,3.81
2017-12-15T20:43:01.501Z,3.58
2017-12-15T20:45:29.451Z,3.69
2017-12-15T20:47:57.195Z,3.97
2017-12-15T20:50:25.178Z,3.90
2017-12-15T20:52:53.374Z,3.93
2017-12-15T20:55:21.098Z,4.10
2017-12-15T20:57:48.861Z,4.45
2017-12-15T21:00:16.848Z,4.66
2017-12-15T21:02:45.208Z,4.63
2017-12-15T21:05:13.190Z,4.39
2017-12-15T21:07:41.301Z,4.62
2017-12-15T21:10:09.322Z,4.60
2017-12-15T21:12:36.988Z,4.60
2017-12-15T21:15:05.162Z,4.75
2017-12-15T21:17:32.918Z,4.76
2017-12-15T21:20:00.494Z,4.73
2017-12-15T21:22:28.451Z,4.78
2017-12-15T21:24:56.007Z,4.70
2017-12-15T21:27:23.855Z,4.65
2017-12-15T21:29:52.043Z,4.40
2017-12-15T21:32:19.754Z,4.49
2017-12-15T21:34:47.476Z,4.60
2017-12-15T21:37:15.150Z,4.41
2017-12-15T21:39:42.691Z,4.23
2017-12-15T21:42:10.327Z,4.32
2017-12-15T21:44:38.013Z,4.45
2017-12-15T21:47:05.620Z,4.45
2017-12-15T21:49:33.336Z,4.38
2017-12-15T21:52:01.563Z,4.40
2017-12-15T21:54:29.534Z,4.09
2017-12-15T21:56:57.337Z,4.50
2017-12-15T21:59:25.212Z,4.39
2017-12-15T22:01:53.181Z,4.18
2017-12-15T22:04:20.763Z,4.37
2017-12-15T22:06:48.523Z,4.33
2017-12-15T22:09:16.063Z,4.20
2017-12-15T22:11:44.646Z,4.46
2017-12-15T22:14:12.718Z,4.59
2017-12-15T22:16:40.277Z,4.57
2017-12-15T22:19:07.836Z,4.56
2017-12-15T22:21:35.804Z,4.44
2017-12-15T22:24:03.466Z,4.31
2017-12-15T22:26:31.023Z,4.25
2017-12-15T22:28:59.198Z,4.10
2017-12-15T22:31:26.758Z,4.37
2017-12-15T22:33:54.334Z,4.27
2017-12-15T22:36:21.986Z,4.33
2017-12-15T22:38:49.537Z,4.31
2017-12-15T22:41:17.097Z,4.29
2017-12-15T22:43:44.785Z,4.38
2017-12-15T22:46:12.335Z,4.40
2017-12-15T22:48:39.876Z,4.25
2017-12-15T22:51:07.644Z,4.28
2017-12-15T22:53:35.694Z,4.39
2017-12-15T22:56:03.874Z,4.41
2017-12-15T22:58:31.754Z,4.45
2017-12-15T23:01:00.927Z,4.30
2017-12-15T23:03:29.654Z,4.18
2017-12-15T23:05:57.307Z,4.22
2017-12-15T23:08:27.535Z,4.10
2017-12-15T23:10:55.074Z,4.09
2017-12-15T23:13:22.737Z,3.94
2017-12-15T23:15:50.296Z,4.09
2017-12-15T23:18:17.857Z,4.14
2017-12-15T23:20:46.541Z,3.90
2017-12-15T23:23:14.963Z,4.03
2017-12-15T23:25:44.026Z,3.93
2017-12-15T23:28:11.780Z,4.02
2017-12-15T23:30:39.339Z,4.02
2017-12-15T23:33:06.858Z,4.15
2017-12-15T23:35:34.405Z,4.21
2017-12-15T23:38:02.412Z,4.04
2017-12-15T23:40:29.922Z,4.03
2017-12-15T23:42:57.545Z,4.27
2017-12-15T23:45:25.046Z,4.36
2017-12-15T23:47:52.588Z,4.31
2017-12-15T23:50:20.527Z,4.33
2017-12-15T23:52:48.043Z,4.26
2017-12-15T23:55:27.729Z,4.18
2017-12-15T23:57:55.238Z,4.21
